Main page
METAR-TAF:

METAR-TAF

Airports :

Laupheim Air Base

Laupheim, Germany

latitude: 48-13N, longitude: 009-55E, elevation: 538 m

Current weather observation

The report was made 1 hour and 7 minutes ago, at 12:20 UTC
Wind 11 kt from the East/Northeast
Temperature 21°C
Humidity 23%
Pressure 1018 hPa
Visibility 10 km or more

METAR: ETHL 211220Z AUTO 07011KT 9999 // ////// 21/M01 Q1018 ///

Time: 15:27 (13:27 UTC)


TAF: missing

Weather observations and forecasts of more than 4000 airports (METAR and TAF reports).

The available stations are represented by yellow and red dots on the map.

Hover mouse over dot to see the name of the station.

Then click to see weather observations and forecasts.

To change the map : click on the green buttons with a black cross to zoom in, on the green button with a dash to zoom out, or on the green arrows for adjacent maps.


METAR-TAF: